sensor_id;sensor_type;location;lat;lon;timestamp;P1;durP1;ratioP1;P2;durP2;ratioP2
64500;SDS011;50874;24.150;-110.320;2024-02-26T00:01:04;23.73;;;3.03;;
64500;SDS011;50874;24.150;-110.320;2024-02-26T00:03:31;18.17;;;3.20;;
64500;SDS011;50874;24.150;-110.320;2024-02-26T00:06:01;18.02;;;2.85;;
64500;SDS011;50874;24.150;-110.320;2024-02-26T00:08:28;13.73;;;3.05;;
64500;SDS011;50874;24.150;-110.320;2024-02-26T00:10:54;10.45;;;1.95;;
64500;SDS011;50874;24.150;-110.320;2024-02-26T00:13:21;8.57;;;2.10;;
64500;SDS011;50874;24.150;-110.320;2024-02-26T00:15:47;25.45;;;3.50;;
64500;SDS011;50874;24.150;-110.320;2024-02-26T00:18:14;11.48;;;2.20;;
64500;SDS011;50874;24.150;-110.320;2024-02-26T00:20:40;16.35;;;2.70;;
64500;SDS011;50874;24.150;-110.320;2024-02-26T00:23:08;13.15;;;2.55;;
64500;SDS011;50874;24.150;-110.320;2024-02-26T00:25:34;27.13;;;2.80;;
64500;SDS011;50874;24.150;-110.320;2024-02-26T00:28:03;15.10;;;2.22;;
64500;SDS011;50874;24.150;-110.320;2024-02-26T00:30:30;9.55;;;2.10;;
64500;SDS011;50874;24.150;-110.320;2024-02-26T00:32:57;8.32;;;2.35;;
64500;SDS011;50874;24.150;-110.320;2024-02-26T00:35:23;13.38;;;2.47;;
64500;SDS011;50874;24.150;-110.320;2024-02-26T00:37:50;9.15;;;2.35;;
64500;SDS011;50874;24.150;-110.320;2024-02-26T00:40:16;4.82;;;2.17;;
64500;SDS011;50874;24.150;-110.320;2024-02-26T00:42:43;13.82;;;3.25;;
64500;SDS011;50874;24.150;-110.320;2024-02-26T00:45:14;7.03;;;1.70;;
64500;SDS011;50874;24.150;-110.320;2024-02-26T00:47:42;9.88;;;1.98;;
64500;SDS011;50874;24.150;-110.320;2024-02-26T00:50:10;30.27;;;3.28;;
64500;SDS011;50874;24.150;-110.320;2024-02-26T00:52:36;17.27;;;3.35;;
64500;SDS011;50874;24.150;-110.320;2024-02-26T00:55:03;23.52;;;2.78;;
64500;SDS011;50874;24.150;-110.320;2024-02-26T00:57:30;19.77;;;2.75;;
64500;SDS011;50874;24.150;-110.320;2024-02-26T00:59:56;13.45;;;2.70;;
64500;SDS011;50874;24.150;-110.320;2024-02-26T01:02:24;16.77;;;3.05;;
64500;SDS011;50874;24.150;-110.320;2024-02-26T01:04:51;35.05;;;4.03;;
64500;SDS011;50874;24.150;-110.320;2024-02-26T01:07:17;15.32;;;3.30;;
64500;SDS011;50874;24.150;-110.320;2024-02-26T01:09:44;25.85;;;4.00;;
64500;SDS011;50874;24.150;-110.320;2024-02-26T01:12:11;26.63;;;5.32;;
64500;SDS011;50874;24.150;-110.320;2024-02-26T01:14:37;16.67;;;3.90;;
64500;SDS011;50874;24.150;-110.320;2024-02-26T01:17:04;34.05;;;3.90;;
64500;SDS011;50874;24.150;-110.320;2024-02-26T01:19:30;9.50;;;2.72;;
64500;SDS011;50874;24.150;-110.320;2024-02-26T01:21:57;18.00;;;3.83;;
64500;SDS011;50874;24.150;-110.320;2024-02-26T01:24:23;21.27;;;4.10;;
64500;SDS011;50874;24.150;-110.320;2024-02-26T01:26:49;15.50;;;3.45;;
64500;SDS011;50874;24.150;-110.320;2024-02-26T01:29:16;15.10;;;2.83;;
64500;SDS011;50874;24.150;-110.320;2024-02-26T01:31:43;10.63;;;2.45;;
64500;SDS011;50874;24.150;-110.320;2024-02-26T01:34:09;13.70;;;2.90;;
64500;SDS011;50874;24.150;-110.320;2024-02-26T01:36:36;23.20;;;3.35;;
64500;SDS011;50874;24.150;-110.320;2024-02-26T01:39:02;16.85;;;2.67;;
64500;SDS011;50874;24.150;-110.320;2024-02-26T01:41:29;17.55;;;3.72;;
64500;SDS011;50874;24.150;-110.320;2024-02-26T01:43:55;12.80;;;3.53;;
64500;SDS011;50874;24.150;-110.320;2024-02-26T01:46:22;14.73;;;2.42;;
64500;SDS011;50874;24.150;-110.320;2024-02-26T01:48:49;14.07;;;2.50;;
64500;SDS011;50874;24.150;-110.320;2024-02-26T01:51:15;15.25;;;2.47;;
64500;SDS011;50874;24.150;-110.320;2024-02-26T01:53:43;18.80;;;3.90;;
64500;SDS011;50874;24.150;-110.320;2024-02-26T01:56:09;18.60;;;3.25;;
64500;SDS011;50874;24.150;-110.320;2024-02-26T01:58:37;17.95;;;2.90;;
64500;SDS011;50874;24.150;-110.320;2024-02-26T02:01:04;22.92;;;3.55;;
64500;SDS011;50874;24.150;-110.320;2024-02-26T02:03:31;12.00;;;2.97;;
64500;SDS011;50874;24.150;-110.320;2024-02-26T02:05:57;11.65;;;2.05;;
64500;SDS011;50874;24.150;-110.320;2024-02-26T02:08:24;13.25;;;1.65;;
64500;SDS011;50874;24.150;-110.320;2024-02-26T02:10:51;10.68;;;1.92;;
64500;SDS011;50874;24.150;-110.320;2024-02-26T02:13:17;9.88;;;2.05;;
64500;SDS011;50874;24.150;-110.320;2024-02-26T02:15:44;8.52;;;2.30;;
64500;SDS011;50874;24.150;-110.320;2024-02-26T02:18:10;9.68;;;1.73;;
64500;SDS011;50874;24.150;-110.320;2024-02-26T02:20:37;10.73;;;2.20;;
64500;SDS011;50874;24.150;-110.320;2024-02-26T02:23:03;10.70;;;1.75;;
64500;SDS011;50874;24.150;-110.320;2024-02-26T02:25:30;12.77;;;1.95;;
64500;SDS011;50874;24.150;-110.320;2024-02-26T02:27:56;16.45;;;2.30;;
64500;SDS011;50874;24.150;-110.320;2024-02-26T02:30:26;20.58;;;2.22;;
64500;SDS011;50874;24.150;-110.320;2024-02-26T02:32:55;12.50;;;1.55;;
64500;SDS011;50874;24.150;-110.320;2024-02-26T02:35:26;8.55;;;2.20;;
64500;SDS011;50874;24.150;-110.320;2024-02-26T02:37:53;15.85;;;3.13;;
64500;SDS011;50874;24.150;-110.320;2024-02-26T02:40:21;17.40;;;2.67;;
64500;SDS011;50874;24.150;-110.320;2024-02-26T02:42:48;8.13;;;2.65;;
64500;SDS011;50874;24.150;-110.320;2024-02-26T02:45:14;9.43;;;1.88;;
64500;SDS011;50874;24.150;-110.320;2024-02-26T02:47:40;9.30;;;1.88;;
64500;SDS011;50874;24.150;-110.320;2024-02-26T02:50:07;22.10;;;2.40;;
64500;SDS011;50874;24.150;-110.320;2024-02-26T02:52:34;7.45;;;2.20;;
64500;SDS011;50874;24.150;-110.320;2024-02-26T02:55:01;14.07;;;2.55;;
64500;SDS011;50874;24.150;-110.320;2024-02-26T02:57:29;17.33;;;1.88;;
64500;SDS011;50874;24.150;-110.320;2024-02-26T02:59:57;10.75;;;2.55;;
64500;SDS011;50874;24.150;-110.320;2024-02-26T03:02:23;16.88;;;3.28;;
64500;SDS011;50874;24.150;-110.320;2024-02-26T03:04:50;8.30;;;1.95;;
64500;SDS011;50874;24.150;-110.320;2024-02-26T03:07:17;24.63;;;3.55;;
64500;SDS011;50874;24.150;-110.320;2024-02-26T03:09:43;24.25;;;3.95;;
64500;SDS011;50874;24.150;-110.320;2024-02-26T03:12:09;18.23;;;2.67;;
64500;SDS011;50874;24.150;-110.320;2024-02-26T03:14:36;12.40;;;2.55;;
64500;SDS011;50874;24.150;-110.320;2024-02-26T03:17:02;12.30;;;1.95;;
64500;SDS011;50874;24.150;-110.320;2024-02-26T03:19:29;23.83;;;2.83;;
64500;SDS011;50874;24.150;-110.320;2024-02-26T03:21:55;14.30;;;2.05;;
64500;SDS011;50874;24.150;-110.320;2024-02-26T03:24:22;20.80;;;1.90;;
64500;SDS011;50874;24.150;-110.320;2024-02-26T03:26:48;8.40;;;1.90;;
64500;SDS011;50874;24.150;-110.320;2024-02-26T03:29:16;10.70;;;1.58;;
64500;SDS011;50874;24.150;-110.320;2024-02-26T03:31:43;12.43;;;1.92;;
64500;SDS011;50874;24.150;-110.320;2024-02-26T03:34:09;13.10;;;1.73;;
64500;SDS011;50874;24.150;-110.320;2024-02-26T03:36:37;13.60;;;2.05;;
64500;SDS011;50874;24.150;-110.320;2024-02-26T03:39:04;9.25;;;1.90;;
64500;SDS011;50874;24.150;-110.320;2024-02-26T03:41:33;16.77;;;1.85;;
64500;SDS011;50874;24.150;-110.320;2024-02-26T03:44:00;13.43;;;2.25;;
64500;SDS011;50874;24.150;-110.320;2024-02-26T03:46:27;9.27;;;1.88;;
64500;SDS011;50874;24.150;-110.320;2024-02-26T03:48:53;18.23;;;2.85;;
64500;SDS011;50874;24.150;-110.320;2024-02-26T03:51:20;17.25;;;3.00;;
64500;SDS011;50874;24.150;-110.320;2024-02-26T03:53:46;14.57;;;3.35;;
64500;SDS011;50874;24.150;-110.320;2024-02-26T03:56:13;21.90;;;2.75;;
64500;SDS011;50874;24.150;-110.320;2024-02-26T03:58:39;16.77;;;2.20;;
64500;SDS011;50874;24.150;-110.320;2024-02-26T04:01:09;25.17;;;2.63;;
64500;SDS011;50874;24.150;-110.320;2024-02-26T04:03:35;11.07;;;2.20;;
64500;SDS011;50874;24.150;-110.320;2024-02-26T04:06:02;10.73;;;1.65;;
64500;SDS011;50874;24.150;-110.320;2024-02-26T04:08:29;7.43;;;1.42;;
64500;SDS011;50874;24.150;-110.320;2024-02-26T04:10:56;7.93;;;1.55;;
64500;SDS011;50874;24.150;-110.320;2024-02-26T04:13:22;11.07;;;1.60;;
64500;SDS011;50874;24.150;-110.320;2024-02-26T04:15:49;6.88;;;1.70;;
64500;SDS011;50874;24.150;-110.320;2024-02-26T04:18:16;8.98;;;1.83;;
64500;SDS011;50874;24.150;-110.320;2024-02-26T04:20:42;13.98;;;1.50;;
64500;SDS011;50874;24.150;-110.320;2024-02-26T04:23:09;11.55;;;1.85;;
64500;SDS011;50874;24.150;-110.320;2024-02-26T04:25:35;14.82;;;2.13;;
64500;SDS011;50874;24.150;-110.320;2024-02-26T04:28:02;7.65;;;1.52;;
64500;SDS011;50874;24.150;-110.320;2024-02-26T04:30:28;14.85;;;1.58;;
64500;SDS011;50874;24.150;-110.320;2024-02-26T04:32:55;9.00;;;2.05;;
64500;SDS011;50874;24.150;-110.320;2024-02-26T04:35:21;19.42;;;2.15;;
64500;SDS011;50874;24.150;-110.320;2024-02-26T04:37:48;7.25;;;1.73;;
64500;SDS011;50874;24.150;-110.320;2024-02-26T04:40:14;8.35;;;1.40;;
64500;SDS011;50874;24.150;-110.320;2024-02-26T04:42:41;11.15;;;2.03;;
64500;SDS011;50874;24.150;-110.320;2024-02-26T04:45:07;7.10;;;1.92;;
64500;SDS011;50874;24.150;-110.320;2024-02-26T04:47:34;14.20;;;2.00;;
64500;SDS011;50874;24.150;-110.320;2024-02-26T04:50:00;3.28;;;1.48;;
64500;SDS011;50874;24.150;-110.320;2024-02-26T04:52:27;13.65;;;2.45;;
64500;SDS011;50874;24.150;-110.320;2024-02-26T04:54:54;9.50;;;1.90;;
64500;SDS011;50874;24.150;-110.320;2024-02-26T04:57:21;13.43;;;2.05;;
64500;SDS011;50874;24.150;-110.320;2024-02-26T04:59:47;9.23;;;1.95;;
64500;SDS011;50874;24.150;-110.320;2024-02-26T05:02:14;12.80;;;2.30;;
64500;SDS011;50874;24.150;-110.320;2024-02-26T05:04:41;13.73;;;2.10;;
64500;SDS011;50874;24.150;-110.320;2024-02-26T05:07:07;13.93;;;2.10;;
64500;SDS011;50874;24.150;-110.320;2024-02-26T05:09:34;6.97;;;1.73;;
64500;SDS011;50874;24.150;-110.320;2024-02-26T05:12:01;10.85;;;2.20;;
64500;SDS011;50874;24.150;-110.320;2024-02-26T05:14:27;16.45;;;2.35;;
64500;SDS011;50874;24.150;-110.320;2024-02-26T05:16:54;11.00;;;1.98;;
64500;SDS011;50874;24.150;-110.320;2024-02-26T05:19:21;9.27;;;1.98;;
64500;SDS011;50874;24.150;-110.320;2024-02-26T05:21:47;19.58;;;3.38;;
64500;SDS011;50874;24.150;-110.320;2024-02-26T05:24:15;6.85;;;1.80;;
64500;SDS011;50874;24.150;-110.320;2024-02-26T05:26:45;15.23;;;2.20;;
64500;SDS011;50874;24.150;-110.320;2024-02-26T05:29:11;14.63;;;2.83;;
64500;SDS011;50874;24.150;-110.320;2024-02-26T05:31:38;7.82;;;1.88;;
64500;SDS011;50874;24.150;-110.320;2024-02-26T05:34:05;8.45;;;1.95;;
64500;SDS011;50874;24.150;-110.320;2024-02-26T05:36:31;6.72;;;1.80;;
64500;SDS011;50874;24.150;-110.320;2024-02-26T05:39:01;8.75;;;1.90;;
64500;SDS011;50874;24.150;-110.320;2024-02-26T05:41:29;19.20;;;1.75;;
64500;SDS011;50874;24.150;-110.320;2024-02-26T05:43:55;4.10;;;1.40;;
64500;SDS011;50874;24.150;-110.320;2024-02-26T05:46:22;9.52;;;2.38;;
64500;SDS011;50874;24.150;-110.320;2024-02-26T05:48:52;6.93;;;1.75;;
64500;SDS011;50874;24.150;-110.320;2024-02-26T05:51:18;7.60;;;1.92;;
64500;SDS011;50874;24.150;-110.320;2024-02-26T05:53:45;6.72;;;1.70;;
64500;SDS011;50874;24.150;-110.320;2024-02-26T05:58:46;4.25;;;1.40;;
64500;SDS011;50874;24.150;-110.320;2024-02-26T06:01:15;7.60;;;1.65;;
64500;SDS011;50874;24.150;-110.320;2024-02-26T06:03:42;9.23;;;1.30;;
64500;SDS011;50874;24.150;-110.320;2024-02-26T06:06:10;9.70;;;1.67;;
64500;SDS011;50874;24.150;-110.320;2024-02-26T06:08:36;6.50;;;1.17;;
64500;SDS011;50874;24.150;-110.320;2024-02-26T06:11:06;6.55;;;1.38;;
64500;SDS011;50874;24.150;-110.320;2024-02-26T06:13:33;6.05;;;1.23;;
64500;SDS011;50874;24.150;-110.320;2024-02-26T06:16:01;5.15;;;1.88;;
64500;SDS011;50874;24.150;-110.320;2024-02-26T06:18:27;5.65;;;1.40;;
64500;SDS011;50874;24.150;-110.320;2024-02-26T06:20:54;3.10;;;1.30;;
64500;SDS011;50874;24.150;-110.320;2024-02-26T06:23:20;7.28;;;1.25;;
64500;SDS011;50874;24.150;-110.320;2024-02-26T06:25:47;5.95;;;1.40;;
64500;SDS011;50874;24.150;-110.320;2024-02-26T06:28:13;4.45;;;1.23;;
64500;SDS011;50874;24.150;-110.320;2024-02-26T06:30:40;7.70;;;1.50;;
64500;SDS011;50874;24.150;-110.320;2024-02-26T06:33:06;5.60;;;1.50;;
64500;SDS011;50874;24.150;-110.320;2024-02-26T06:36:20;3.50;;;1.50;;
64500;SDS011;50874;24.150;-110.320;2024-02-26T06:38:47;13.98;;;1.60;;
64500;SDS011;50874;24.150;-110.320;2024-02-26T06:41:14;6.13;;;1.25;;
64500;SDS011;50874;24.150;-110.320;2024-02-26T06:43:41;7.97;;;1.33;;
64500;SDS011;50874;24.150;-110.320;2024-02-26T06:46:07;2.92;;;0.90;;
64500;SDS011;50874;24.150;-110.320;2024-02-26T06:48:34;7.18;;;1.10;;
64500;SDS011;50874;24.150;-110.320;2024-02-26T06:51:02;4.38;;;0.75;;
64500;SDS011;50874;24.150;-110.320;2024-02-26T06:53:28;22.13;;;3.95;;
64500;SDS011;50874;24.150;-110.320;2024-02-26T06:55:55;11.30;;;1.13;;
64500;SDS011;50874;24.150;-110.320;2024-02-26T06:58:21;6.20;;;0.70;;
64500;SDS011;50874;24.150;-110.320;2024-02-26T07:00:48;5.10;;;1.10;;
64500;SDS011;50874;24.150;-110.320;2024-02-26T07:03:15;5.28;;;0.90;;
64500;SDS011;50874;24.150;-110.320;2024-02-26T07:05:41;3.97;;;0.80;;
64500;SDS011;50874;24.150;-110.320;2024-02-26T07:08:09;4.45;;;1.00;;
64500;SDS011;50874;24.150;-110.320;2024-02-26T07:10:36;6.45;;;0.90;;
64500;SDS011;50874;24.150;-110.320;2024-02-26T07:13:02;4.97;;;0.90;;
64500;SDS011;50874;24.150;-110.320;2024-02-26T07:15:29;1.67;;;0.70;;
64500;SDS011;50874;24.150;-110.320;2024-02-26T07:17:56;2.60;;;0.80;;
64500;SDS011;50874;24.150;-110.320;2024-02-26T07:20:28;8.55;;;1.35;;
64500;SDS011;50874;24.150;-110.320;2024-02-26T07:22:55;2.13;;;1.13;;
64500;SDS011;50874;24.150;-110.320;2024-02-26T07:25:22;5.22;;;0.60;;
64500;SDS011;50874;24.150;-110.320;2024-02-26T07:27:49;4.68;;;0.95;;
64500;SDS011;50874;24.150;-110.320;2024-02-26T07:30:16;3.28;;;0.90;;
64500;SDS011;50874;24.150;-110.320;2024-02-26T07:32:43;5.20;;;0.93;;
64500;SDS011;50874;24.150;-110.320;2024-02-26T07:35:10;5.70;;;1.00;;
64500;SDS011;50874;24.150;-110.320;2024-02-26T07:37:36;3.92;;;0.85;;
64500;SDS011;50874;24.150;-110.320;2024-02-26T07:40:03;5.20;;;1.00;;
64500;SDS011;50874;24.150;-110.320;2024-02-26T07:42:31;9.63;;;1.60;;
64500;SDS011;50874;24.150;-110.320;2024-02-26T07:44:57;4.95;;;0.85;;
64500;SDS011;50874;24.150;-110.320;2024-02-26T07:47:24;3.33;;;0.60;;
64500;SDS011;50874;24.150;-110.320;2024-02-26T07:49:50;12.95;;;2.13;;
64500;SDS011;50874;24.150;-110.320;2024-02-26T07:52:17;14.73;;;1.65;;
64500;SDS011;50874;24.150;-110.320;2024-02-26T07:54:43;11.07;;;2.65;;
64500;SDS011;50874;24.150;-110.320;2024-02-26T07:57:10;12.27;;;1.40;;
64500;SDS011;50874;24.150;-110.320;2024-02-26T07:59:36;7.85;;;1.70;;
64500;SDS011;50874;24.150;-110.320;2024-02-26T08:02:02;7.22;;;1.75;;
64500;SDS011;50874;24.150;-110.320;2024-02-26T08:04:30;14.90;;;2.35;;
64500;SDS011;50874;24.150;-110.320;2024-02-26T08:06:57;6.00;;;1.15;;
64500;SDS011;50874;24.150;-110.320;2024-02-26T08:09:23;16.00;;;2.00;;
64500;SDS011;50874;24.150;-110.320;2024-02-26T08:11:50;5.63;;;1.10;;
64500;SDS011;50874;24.150;-110.320;2024-02-26T08:14:16;10.75;;;1.27;;
64500;SDS011;50874;24.150;-110.320;2024-02-26T08:16:43;11.23;;;1.50;;
64500;SDS011;50874;24.150;-110.320;2024-02-26T08:19:09;10.00;;;1.73;;
64500;SDS011;50874;24.150;-110.320;2024-02-26T08:21:38;9.15;;;1.55;;
64500;SDS011;50874;24.150;-110.320;2024-02-26T08:24:05;3.58;;;1.20;;
64500;SDS011;50874;24.150;-110.320;2024-02-26T08:26:31;8.18;;;1.35;;
64500;SDS011;50874;24.150;-110.320;2024-02-26T08:28:58;4.75;;;1.13;;
64500;SDS011;50874;24.150;-110.320;2024-02-26T08:31:24;3.20;;;0.90;;
64500;SDS011;50874;24.150;-110.320;2024-02-26T08:33:52;4.43;;;1.15;;
64500;SDS011;50874;24.150;-110.320;2024-02-26T08:36:18;3.55;;;0.95;;
64500;SDS011;50874;24.150;-110.320;2024-02-26T08:38:45;9.60;;;1.17;;
64500;SDS011;50874;24.150;-110.320;2024-02-26T08:41:12;8.55;;;1.13;;
64500;SDS011;50874;24.150;-110.320;2024-02-26T08:43:38;4.93;;;1.20;;
64500;SDS011;50874;24.150;-110.320;2024-02-26T08:46:08;3.28;;;0.82;;
64500;SDS011;50874;24.150;-110.320;2024-02-26T08:48:35;8.75;;;1.52;;
64500;SDS011;50874;24.150;-110.320;2024-02-26T08:51:04;3.25;;;1.00;;
64500;SDS011;50874;24.150;-110.320;2024-02-26T08:53:34;1.80;;;0.90;;
64500;SDS011;50874;24.150;-110.320;2024-02-26T08:56:01;5.63;;;1.25;;
64500;SDS011;50874;24.150;-110.320;2024-02-26T08:58:28;5.88;;;0.75;;
64500;SDS011;50874;24.150;-110.320;2024-02-26T09:00:55;4.70;;;1.02;;
64500;SDS011;50874;24.150;-110.320;2024-02-26T09:03:21;4.55;;;0.93;;
64500;SDS011;50874;24.150;-110.320;2024-02-26T09:05:48;2.88;;;1.10;;
64500;SDS011;50874;24.150;-110.320;2024-02-26T09:08:15;4.65;;;0.80;;
64500;SDS011;50874;24.150;-110.320;2024-02-26T09:10:41;6.97;;;1.02;;
64500;SDS011;50874;24.150;-110.320;2024-02-26T09:13:08;1.77;;;0.52;;
64500;SDS011;50874;24.150;-110.320;2024-02-26T09:15:34;3.13;;;0.75;;
64500;SDS011;50874;24.150;-110.320;2024-02-26T09:18:01;3.60;;;1.23;;
64500;SDS011;50874;24.150;-110.320;2024-02-26T09:20:28;4.10;;;0.65;;
64500;SDS011;50874;24.150;-110.320;2024-02-26T09:22:54;2.45;;;0.95;;
64500;SDS011;50874;24.150;-110.320;2024-02-26T09:25:21;5.20;;;0.82;;
64500;SDS011;50874;24.150;-110.320;2024-02-26T09:27:47;8.27;;;1.23;;
64500;SDS011;50874;24.150;-110.320;2024-02-26T09:30:14;2.50;;;0.73;;
64500;SDS011;50874;24.150;-110.320;2024-02-26T09:32:40;3.85;;;0.73;;
64500;SDS011;50874;24.150;-110.320;2024-02-26T09:35:11;4.15;;;0.98;;
64500;SDS011;50874;24.150;-110.320;2024-02-26T09:37:38;6.50;;;1.25;;
64500;SDS011;50874;24.150;-110.320;2024-02-26T09:40:05;4.43;;;0.90;;
64500;SDS011;50874;24.150;-110.320;2024-02-26T09:42:32;5.20;;;1.30;;
64500;SDS011;50874;24.150;-110.320;2024-02-26T09:45:00;4.65;;;1.17;;
64500;SDS011;50874;24.150;-110.320;2024-02-26T09:47:35;3.03;;;0.70;;
64500;SDS011;50874;24.150;-110.320;2024-02-26T09:50:03;6.32;;;1.10;;
64500;SDS011;50874;24.150;-110.320;2024-02-26T09:52:34;6.75;;;1.35;;
64500;SDS011;50874;24.150;-110.320;2024-02-26T09:55:03;8.02;;;1.65;;
64500;SDS011;50874;24.150;-110.320;2024-02-26T09:57:30;9.07;;;0.80;;
64500;SDS011;50874;24.150;-110.320;2024-02-26T09:59:59;3.75;;;0.82;;
64500;SDS011;50874;24.150;-110.320;2024-02-26T10:02:30;6.70;;;0.95;;
64500;SDS011;50874;24.150;-110.320;2024-02-26T10:04:59;4.40;;;1.00;;
64500;SDS011;50874;24.150;-110.320;2024-02-26T10:07:30;3.97;;;0.95;;
64500;SDS011;50874;24.150;-110.320;2024-02-26T10:09:57;5.30;;;1.23;;
64500;SDS011;50874;24.150;-110.320;2024-02-26T10:12:24;4.18;;;1.15;;
64500;SDS011;50874;24.150;-110.320;2024-02-26T10:14:52;10.82;;;1.05;;
64500;SDS011;50874;24.150;-110.320;2024-02-26T10:17:19;4.22;;;0.63;;
64500;SDS011;50874;24.150;-110.320;2024-02-26T10:19:47;3.47;;;1.00;;
64500;SDS011;50874;24.150;-110.320;2024-02-26T10:22:13;6.70;;;0.88;;
64500;SDS011;50874;24.150;-110.320;2024-02-26T10:24:39;4.47;;;1.00;;
64500;SDS011;50874;24.150;-110.320;2024-02-26T10:27:06;4.80;;;0.82;;
64500;SDS011;50874;24.150;-110.320;2024-02-26T10:29:35;1.42;;;0.70;;
64500;SDS011;50874;24.150;-110.320;2024-02-26T10:32:01;4.97;;;1.02;;
64500;SDS011;50874;24.150;-110.320;2024-02-26T10:34:28;8.95;;;0.82;;
64500;SDS011;50874;24.150;-110.320;2024-02-26T10:36:54;3.72;;;0.70;;
64500;SDS011;50874;24.150;-110.320;2024-02-26T10:39:21;3.03;;;0.73;;
64500;SDS011;50874;24.150;-110.320;2024-02-26T10:41:47;1.60;;;0.80;;
64500;SDS011;50874;24.150;-110.320;2024-02-26T10:44:14;7.07;;;0.73;;
64500;SDS011;50874;24.150;-110.320;2024-02-26T10:46:40;1.92;;;0.90;;
64500;SDS011;50874;24.150;-110.320;2024-02-26T10:49:12;2.70;;;0.90;;
64500;SDS011;50874;24.150;-110.320;2024-02-26T10:51:43;4.00;;;1.35;;
64500;SDS011;50874;24.150;-110.320;2024-02-26T10:54:12;5.38;;;1.20;;
64500;SDS011;50874;24.150;-110.320;2024-02-26T10:56:42;4.95;;;1.30;;
64500;SDS011;50874;24.150;-110.320;2024-02-26T10:59:11;4.68;;;1.30;;
64500;SDS011;50874;24.150;-110.320;2024-02-26T11:01:38;6.22;;;1.45;;
64500;SDS011;50874;24.150;-110.320;2024-02-26T11:04:06;3.45;;;1.10;;
64500;SDS011;50874;24.150;-110.320;2024-02-26T11:06:35;7.60;;;1.33;;
64500;SDS011;50874;24.150;-110.320;2024-02-26T11:09:02;4.40;;;1.08;;
64500;SDS011;50874;24.150;-110.320;2024-02-26T11:11:33;7.00;;;1.13;;
64500;SDS011;50874;24.150;-110.320;2024-02-26T11:14:01;9.05;;;1.42;;
64500;SDS011;50874;24.150;-110.320;2024-02-26T11:16:29;4.93;;;0.73;;
64500;SDS011;50874;24.150;-110.320;2024-02-26T11:18:56;3.83;;;0.80;;
64500;SDS011;50874;24.150;-110.320;2024-02-26T11:21:25;2.90;;;0.50;;
64500;SDS011;50874;24.150;-110.320;2024-02-26T11:24:12;1.77;;;0.98;;
64500;SDS011;50874;24.150;-110.320;2024-02-26T11:26:43;5.63;;;1.00;;
64500;SDS011;50874;24.150;-110.320;2024-02-26T11:29:17;2.25;;;1.00;;
64500;SDS011;50874;24.150;-110.320;2024-02-26T11:31:46;11.20;;;2.00;;
64500;SDS011;50874;24.150;-110.320;2024-02-26T11:34:13;11.70;;;1.27;;
64500;SDS011;50874;24.150;-110.320;2024-02-26T11:36:40;7.28;;;0.95;;
64500;SDS011;50874;24.150;-110.320;2024-02-26T11:39:07;6.65;;;1.13;;
64500;SDS011;50874;24.150;-110.320;2024-02-26T11:41:37;7.40;;;1.60;;
64500;SDS011;50874;24.150;-110.320;2024-02-26T11:44:04;6.50;;;1.50;;
64500;SDS011;50874;24.150;-110.320;2024-02-26T11:46:32;6.25;;;1.33;;
64500;SDS011;50874;24.150;-110.320;2024-02-26T11:51:56;5.45;;;0.75;;
64500;SDS011;50874;24.150;-110.320;2024-02-26T11:57:29;2.42;;;0.60;;
64500;SDS011;50874;24.150;-110.320;2024-02-26T12:02:53;3.85;;;0.80;;
64500;SDS011;50874;24.150;-110.320;2024-02-26T12:05:27;5.73;;;1.00;;
64500;SDS011;50874;24.150;-110.320;2024-02-26T12:08:01;3.38;;;1.05;;
64500;SDS011;50874;24.150;-110.320;2024-02-26T12:10:32;4.43;;;1.10;;
64500;SDS011;50874;24.150;-110.320;2024-02-26T12:13:13;6.22;;;1.17;;
64500;SDS011;50874;24.150;-110.320;2024-02-26T12:15:44;6.45;;;1.15;;
64500;SDS011;50874;24.150;-110.320;2024-02-26T12:18:17;9.82;;;1.63;;
64500;SDS011;50874;24.150;-110.320;2024-02-26T12:20:45;7.82;;;1.38;;
64500;SDS011;50874;24.150;-110.320;2024-02-26T12:23:15;11.15;;;1.33;;
64500;SDS011;50874;24.150;-110.320;2024-02-26T12:25:44;9.45;;;1.45;;
64500;SDS011;50874;24.150;-110.320;2024-02-26T12:28:16;8.90;;;1.83;;
64500;SDS011;50874;24.150;-110.320;2024-02-26T12:30:42;10.80;;;1.27;;
64500;SDS011;50874;24.150;-110.320;2024-02-26T12:33:09;18.17;;;3.22;;
64500;SDS011;50874;24.150;-110.320;2024-02-26T12:35:36;10.88;;;1.40;;
64500;SDS011;50874;24.150;-110.320;2024-02-26T12:38:02;5.53;;;1.33;;
64500;SDS011;50874;24.150;-110.320;2024-02-26T12:40:30;21.85;;;2.10;;
64500;SDS011;50874;24.150;-110.320;2024-02-26T12:42:57;15.98;;;2.03;;
64500;SDS011;50874;24.150;-110.320;2024-02-26T12:45:25;17.55;;;2.20;;
64500;SDS011;50874;24.150;-110.320;2024-02-26T12:47:53;14.63;;;1.98;;
64500;SDS011;50874;24.150;-110.320;2024-02-26T12:50:19;16.58;;;2.67;;
64500;SDS011;50874;24.150;-110.320;2024-02-26T12:52:46;15.35;;;2.20;;
64500;SDS011;50874;24.150;-110.320;2024-02-26T12:55:15;13.35;;;1.73;;
64500;SDS011;50874;24.150;-110.320;2024-02-26T12:57:46;10.40;;;1.88;;
64500;SDS011;50874;24.150;-110.320;2024-02-26T13:00:18;18.17;;;2.42;;
64500;SDS011;50874;24.150;-110.320;2024-02-26T13:02:51;15.90;;;2.22;;
64500;SDS011;50874;24.150;-110.320;2024-02-26T13:05:20;8.80;;;1.10;;
64500;SDS011;50874;24.150;-110.320;2024-02-26T13:07:47;92.35;;;9.60;;
64500;SDS011;50874;24.150;-110.320;2024-02-26T13:10:14;30.58;;;2.50;;
64500;SDS011;50874;24.150;-110.320;2024-02-26T13:12:43;12.20;;;1.98;;
64500;SDS011;50874;24.150;-110.320;2024-02-26T13:15:15;27.85;;;2.42;;
64500;SDS011;50874;24.150;-110.320;2024-02-26T13:17:42;16.52;;;1.85;;
64500;SDS011;50874;24.150;-110.320;2024-02-26T13:20:09;21.15;;;2.05;;
64500;SDS011;50874;24.150;-110.320;2024-02-26T13:22:36;15.20;;;2.70;;
64500;SDS011;50874;24.150;-110.320;2024-02-26T13:25:04;29.55;;;3.60;;
64500;SDS011;50874;24.150;-110.320;2024-02-26T13:27:32;45.85;;;6.80;;
64500;SDS011;50874;24.150;-110.320;2024-02-26T13:30:09;38.38;;;6.05;;
64500;SDS011;50874;24.150;-110.320;2024-02-26T13:32:37;129.20;;;14.55;;
64500;SDS011;50874;24.150;-110.320;2024-02-26T13:35:05;51.67;;;5.80;;
64500;SDS011;50874;24.150;-110.320;2024-02-26T13:37:33;78.70;;;8.15;;
64500;SDS011;50874;24.150;-110.320;2024-02-26T13:40:00;65.88;;;10.73;;
64500;SDS011;50874;24.150;-110.320;2024-02-26T13:42:30;81.70;;;11.02;;
64500;SDS011;50874;24.150;-110.320;2024-02-26T13:44:58;68.97;;;9.10;;
64500;SDS011;50874;24.150;-110.320;2024-02-26T13:47:24;68.88;;;8.73;;
64500;SDS011;50874;24.150;-110.320;2024-02-26T13:49:50;66.18;;;7.55;;
64500;SDS011;50874;24.150;-110.320;2024-02-26T13:52:17;251.57;;;26.13;;
64500;SDS011;50874;24.150;-110.320;2024-02-26T13:54:45;323.45;;;31.02;;
64500;SDS011;50874;24.150;-110.320;2024-02-26T13:57:12;772.53;;;76.55;;
64500;SDS011;50874;24.150;-110.320;2024-02-26T13:59:39;377.33;;;38.60;;
64500;SDS011;50874;24.150;-110.320;2024-02-26T14:02:08;192.40;;;16.52;;
64500;SDS011;50874;24.150;-110.320;2024-02-26T14:04:35;175.85;;;16.92;;
64500;SDS011;50874;24.150;-110.320;2024-02-26T14:07:03;177.75;;;16.70;;
64500;SDS011;50874;24.150;-110.320;2024-02-26T14:09:30;141.25;;;15.85;;
64500;SDS011;50874;24.150;-110.320;2024-02-26T14:11:57;123.00;;;14.40;;
64500;SDS011;50874;24.150;-110.320;2024-02-26T14:14:27;91.65;;;11.18;;